sensor_id;sensor_type;location;lat;lon;timestamp;P1;durP1;ratioP1;P2;durP2;ratioP2
78209;SDS011;67485;48.816;9.930;2023-10-13T00:02:01;8.52;;;4.25;;
78209;SDS011;67485;48.816;9.930;2023-10-13T00:04:30;6.53;;;3.88;;
78209;SDS011;67485;48.816;9.930;2023-10-13T00:06:58;7.80;;;3.97;;
78209;SDS011;67485;48.816;9.930;2023-10-13T00:09:28;12.30;;;3.80;;
78209;SDS011;67485;48.816;9.930;2023-10-13T00:12:00;8.32;;;3.55;;
78209;SDS011;67485;48.816;9.930;2023-10-13T00:14:26;9.48;;;4.43;;
78209;SDS011;67485;48.816;9.930;2023-10-13T00:17:02;6.60;;;3.80;;
78209;SDS011;67485;48.816;9.930;2023-10-13T00:19:30;7.53;;;3.53;;
78209;SDS011;67485;48.816;9.930;2023-10-13T00:22:17;10.88;;;3.75;;
78209;SDS011;67485;48.816;9.930;2023-10-13T00:24:47;7.93;;;3.90;;
78209;SDS011;67485;48.816;9.930;2023-10-13T00:27:20;8.30;;;3.70;;
78209;SDS011;67485;48.816;9.930;2023-10-13T00:30:00;10.43;;;3.72;;
78209;SDS011;67485;48.816;9.930;2023-10-13T00:32:40;11.27;;;3.70;;
78209;SDS011;67485;48.816;9.930;2023-10-13T00:35:11;5.63;;;3.33;;
78209;SDS011;67485;48.816;9.930;2023-10-13T00:37:55;10.23;;;3.53;;
78209;SDS011;67485;48.816;9.930;2023-10-13T00:40:23;6.20;;;3.42;;
78209;SDS011;67485;48.816;9.930;2023-10-13T00:42:56;12.10;;;3.88;;
78209;SDS011;67485;48.816;9.930;2023-10-13T00:45:46;8.30;;;3.97;;
78209;SDS011;67485;48.816;9.930;2023-10-13T00:48:35;8.55;;;3.90;;
78209;SDS011;67485;48.816;9.930;2023-10-13T00:51:11;7.28;;;3.83;;
78209;SDS011;67485;48.816;9.930;2023-10-13T00:53:47;8.05;;;3.97;;
78209;SDS011;67485;48.816;9.930;2023-10-13T00:56:14;5.93;;;3.50;;
78209;SDS011;67485;48.816;9.930;2023-10-13T00:58:53;8.90;;;3.73;;
78209;SDS011;67485;48.816;9.930;2023-10-13T01:01:19;10.10;;;3.35;;
78209;SDS011;67485;48.816;9.930;2023-10-13T01:03:54;11.15;;;3.83;;
78209;SDS011;67485;48.816;9.930;2023-10-13T01:06:21;12.93;;;3.78;;
78209;SDS011;67485;48.816;9.930;2023-10-13T01:09:08;13.05;;;3.95;;
78209;SDS011;67485;48.816;9.930;2023-10-13T01:11:48;7.80;;;3.97;;
78209;SDS011;67485;48.816;9.930;2023-10-13T01:14:20;8.25;;;3.35;;
78209;SDS011;67485;48.816;9.930;2023-10-13T01:16:48;9.07;;;3.95;;
78209;SDS011;67485;48.816;9.930;2023-10-13T01:19:18;6.55;;;3.63;;
78209;SDS011;67485;48.816;9.930;2023-10-13T01:21:50;11.98;;;3.75;;
78209;SDS011;67485;48.816;9.930;2023-10-13T01:24:19;10.70;;;4.07;;
78209;SDS011;67485;48.816;9.930;2023-10-13T01:26:49;7.30;;;3.53;;
78209;SDS011;67485;48.816;9.930;2023-10-13T01:29:16;8.63;;;3.80;;
78209;SDS011;67485;48.816;9.930;2023-10-13T01:31:44;9.05;;;3.40;;
78209;SDS011;67485;48.816;9.930;2023-10-13T01:34:11;6.70;;;3.60;;
78209;SDS011;67485;48.816;9.930;2023-10-13T01:36:50;8.13;;;4.30;;
78209;SDS011;67485;48.816;9.930;2023-10-13T01:39:18;6.70;;;3.47;;
78209;SDS011;67485;48.816;9.930;2023-10-13T01:41:52;7.10;;;3.80;;
78209;SDS011;67485;48.816;9.930;2023-10-13T01:44:24;6.85;;;3.80;;
78209;SDS011;67485;48.816;9.930;2023-10-13T01:46:56;6.40;;;3.47;;
78209;SDS011;67485;48.816;9.930;2023-10-13T01:49:28;9.17;;;4.33;;
78209;SDS011;67485;48.816;9.930;2023-10-13T01:51:53;8.55;;;3.95;;
78209;SDS011;67485;48.816;9.930;2023-10-13T01:54:19;6.05;;;3.63;;
78209;SDS011;67485;48.816;9.930;2023-10-13T01:56:46;6.73;;;3.77;;
78209;SDS011;67485;48.816;9.930;2023-10-13T01:59:14;9.90;;;3.70;;
78209;SDS011;67485;48.816;9.930;2023-10-13T02:01:40;8.95;;;3.78;;
78209;SDS011;67485;48.816;9.930;2023-10-13T02:04:07;7.28;;;4.03;;
78209;SDS011;67485;48.816;9.930;2023-10-13T02:06:35;7.90;;;3.67;;
78209;SDS011;67485;48.816;9.930;2023-10-13T02:09:05;10.23;;;3.57;;
78209;SDS011;67485;48.816;9.930;2023-10-13T02:11:37;5.68;;;3.40;;
78209;SDS011;67485;48.816;9.930;2023-10-13T02:14:03;10.48;;;4.13;;
78209;SDS011;67485;48.816;9.930;2023-10-13T02:16:29;9.60;;;3.47;;
78209;SDS011;67485;48.816;9.930;2023-10-13T02:18:57;6.03;;;3.50;;
78209;SDS011;67485;48.816;9.930;2023-10-13T02:21:29;10.40;;;3.80;;
78209;SDS011;67485;48.816;9.930;2023-10-13T02:24:07;10.27;;;3.60;;
78209;SDS011;67485;48.816;9.930;2023-10-13T02:26:53;6.50;;;3.35;;
78209;SDS011;67485;48.816;9.930;2023-10-13T02:29:20;6.70;;;3.35;;
78209;SDS011;67485;48.816;9.930;2023-10-13T02:31:45;9.67;;;3.77;;
78209;SDS011;67485;48.816;9.930;2023-10-13T02:34:29;7.40;;;4.00;;
78209;SDS011;67485;48.816;9.930;2023-10-13T02:36:56;9.30;;;3.60;;
78209;SDS011;67485;48.816;9.930;2023-10-13T02:39:22;9.53;;;3.80;;
78209;SDS011;67485;48.816;9.930;2023-10-13T02:42:01;9.98;;;3.80;;
78209;SDS011;67485;48.816;9.930;2023-10-13T02:44:32;8.93;;;3.58;;
78209;SDS011;67485;48.816;9.930;2023-10-13T02:47:02;9.57;;;3.13;;
78209;SDS011;67485;48.816;9.930;2023-10-13T02:49:39;8.13;;;3.50;;
78209;SDS011;67485;48.816;9.930;2023-10-13T02:52:08;7.80;;;3.30;;
78209;SDS011;67485;48.816;9.930;2023-10-13T02:54:41;7.80;;;3.25;;
78209;SDS011;67485;48.816;9.930;2023-10-13T02:57:16;6.63;;;3.35;;
78209;SDS011;67485;48.816;9.930;2023-10-13T02:59:43;9.23;;;4.00;;
78209;SDS011;67485;48.816;9.930;2023-10-13T03:02:13;6.47;;;3.43;;
78209;SDS011;67485;48.816;9.930;2023-10-13T03:04:54;6.82;;;3.50;;
78209;SDS011;67485;48.816;9.930;2023-10-13T03:07:39;8.65;;;3.60;;
78209;SDS011;67485;48.816;9.930;2023-10-13T03:10:08;12.80;;;3.50;;
78209;SDS011;67485;48.816;9.930;2023-10-13T03:12:37;6.65;;;3.17;;
78209;SDS011;67485;48.816;9.930;2023-10-13T03:15:04;7.27;;;2.80;;
78209;SDS011;67485;48.816;9.930;2023-10-13T03:17:43;6.65;;;3.63;;
78209;SDS011;67485;48.816;9.930;2023-10-13T03:20:10;6.22;;;3.35;;
78209;SDS011;67485;48.816;9.930;2023-10-13T03:22:38;8.15;;;3.80;;
78209;SDS011;67485;48.816;9.930;2023-10-13T03:25:05;11.05;;;3.90;;
78209;SDS011;67485;48.816;9.930;2023-10-13T03:27:33;14.83;;;4.10;;
78209;SDS011;67485;48.816;9.930;2023-10-13T03:30:17;7.50;;;3.30;;
78209;SDS011;67485;48.816;9.930;2023-10-13T03:32:42;6.38;;;2.85;;
78209;SDS011;67485;48.816;9.930;2023-10-13T03:35:09;14.85;;;3.97;;
78209;SDS011;67485;48.816;9.930;2023-10-13T03:37:42;7.80;;;3.60;;
78209;SDS011;67485;48.816;9.930;2023-10-13T03:40:08;7.68;;;3.00;;
78209;SDS011;67485;48.816;9.930;2023-10-13T03:43:01;5.35;;;2.97;;
78209;SDS011;67485;48.816;9.930;2023-10-13T06:12:42;6.47;;;3.37;;
78209;SDS011;67485;48.816;9.930;2023-10-13T06:15:27;7.00;;;3.63;;
78209;SDS011;67485;48.816;9.930;2023-10-13T06:18:11;7.40;;;3.65;;
78209;SDS011;67485;48.816;9.930;2023-10-13T06:20:55;8.50;;;3.60;;
78209;SDS011;67485;48.816;9.930;2023-10-13T06:23:59;8.35;;;3.33;;
78209;SDS011;67485;48.816;9.930;2023-10-13T06:26:43;8.73;;;3.37;;
78209;SDS011;67485;48.816;9.930;2023-10-13T06:29:27;8.65;;;3.45;;
78209;SDS011;67485;48.816;9.930;2023-10-13T06:31:53;11.13;;;4.10;;
78209;SDS011;67485;48.816;9.930;2023-10-13T06:34:22;12.20;;;4.13;;
78209;SDS011;67485;48.816;9.930;2023-10-13T06:37:05;9.05;;;3.50;;
78209;SDS011;67485;48.816;9.930;2023-10-13T06:39:48;11.02;;;3.28;;
78209;SDS011;67485;48.816;9.930;2023-10-13T06:42:27;9.07;;;3.60;;
78209;SDS011;67485;48.816;9.930;2023-10-13T06:44:56;7.45;;;3.45;;
78209;SDS011;67485;48.816;9.930;2023-10-13T06:47:25;10.47;;;3.70;;
78209;SDS011;67485;48.816;9.930;2023-10-13T06:49:53;10.88;;;3.47;;
78209;SDS011;67485;48.816;9.930;2023-10-13T06:52:20;10.02;;;3.10;;
78209;SDS011;67485;48.816;9.930;2023-10-13T06:54:50;6.30;;;3.47;;
78209;SDS011;67485;48.816;9.930;2023-10-13T06:57:18;8.88;;;3.60;;
78209;SDS011;67485;48.816;9.930;2023-10-13T06:59:47;8.90;;;3.90;;
78209;SDS011;67485;48.816;9.930;2023-10-13T07:02:13;9.82;;;4.25;;
78209;SDS011;67485;48.816;9.930;2023-10-13T07:04:48;7.45;;;3.70;;
78209;SDS011;67485;48.816;9.930;2023-10-13T07:07:25;9.77;;;3.65;;
78209;SDS011;67485;48.816;9.930;2023-10-13T07:09:50;11.45;;;3.72;;
78209;SDS011;67485;48.816;9.930;2023-10-13T07:12:23;5.97;;;3.33;;
78209;SDS011;67485;48.816;9.930;2023-10-13T07:14:51;11.48;;;3.33;;
78209;SDS011;67485;48.816;9.930;2023-10-13T07:17:18;8.80;;;3.47;;
78209;SDS011;67485;48.816;9.930;2023-10-13T07:19:51;9.18;;;3.22;;
78209;SDS011;67485;48.816;9.930;2023-10-13T07:22:31;9.93;;;3.65;;
78209;SDS011;67485;48.816;9.930;2023-10-13T07:25:05;8.30;;;3.27;;
78209;SDS011;67485;48.816;9.930;2023-10-13T07:27:32;9.15;;;3.47;;
78209;SDS011;67485;48.816;9.930;2023-10-13T07:30:00;10.38;;;3.60;;
78209;SDS011;67485;48.816;9.930;2023-10-13T07:32:38;9.52;;;3.08;;
78209;SDS011;67485;48.816;9.930;2023-10-13T07:35:17;6.22;;;3.03;;
78209;SDS011;67485;48.816;9.930;2023-10-13T07:37:45;10.67;;;3.03;;
78209;SDS011;67485;48.816;9.930;2023-10-13T07:40:14;11.57;;;2.90;;
78209;SDS011;67485;48.816;9.930;2023-10-13T07:42:54;9.77;;;3.10;;
78209;SDS011;67485;48.816;9.930;2023-10-13T07:45:29;16.45;;;3.38;;
78209;SDS011;67485;48.816;9.930;2023-10-13T07:48:05;16.48;;;4.03;;
78209;SDS011;67485;48.816;9.930;2023-10-13T07:50:58;10.83;;;4.27;;
78209;SDS011;67485;48.816;9.930;2023-10-13T07:53:26;15.48;;;4.13;;
78209;SDS011;67485;48.816;9.930;2023-10-13T07:55:54;9.88;;;3.85;;
78209;SDS011;67485;48.816;9.930;2023-10-13T07:58:21;11.90;;;3.17;;
78209;SDS011;67485;48.816;9.930;2023-10-13T08:00:50;9.40;;;4.07;;
78209;SDS011;67485;48.816;9.930;2023-10-13T08:03:32;11.43;;;3.42;;
78209;SDS011;67485;48.816;9.930;2023-10-13T08:06:14;7.53;;;3.28;;
78209;SDS011;67485;48.816;9.930;2023-10-13T08:08:41;8.95;;;3.35;;
78209;SDS011;67485;48.816;9.930;2023-10-13T08:11:12;12.60;;;3.85;;
78209;SDS011;67485;48.816;9.930;2023-10-13T08:14:00;11.37;;;3.50;;
78209;SDS011;67485;48.816;9.930;2023-10-13T08:16:40;11.27;;;3.72;;
78209;SDS011;67485;48.816;9.930;2023-10-13T08:19:20;8.55;;;3.40;;
78209;SDS011;67485;48.816;9.930;2023-10-13T08:22:08;11.73;;;3.90;;
78209;SDS011;67485;48.816;9.930;2023-10-13T08:24:47;8.18;;;3.25;;
78209;SDS011;67485;48.816;9.930;2023-10-13T08:27:14;14.33;;;3.87;;
78209;SDS011;67485;48.816;9.930;2023-10-13T08:29:59;7.10;;;3.17;;
78209;SDS011;67485;48.816;9.930;2023-10-13T08:32:44;11.65;;;3.15;;
78209;SDS011;67485;48.816;9.930;2023-10-13T08:35:20;8.25;;;3.20;;
78209;SDS011;67485;48.816;9.930;2023-10-13T08:37:55;12.45;;;3.65;;
78209;SDS011;67485;48.816;9.930;2023-10-13T08:40:28;9.33;;;3.23;;
78209;SDS011;67485;48.816;9.930;2023-10-13T08:43:28;9.75;;;3.28;;
78209;SDS011;67485;48.816;9.930;2023-10-13T08:46:08;7.65;;;3.17;;
78209;SDS011;67485;48.816;9.930;2023-10-13T08:48:34;8.52;;;3.10;;
78209;SDS011;67485;48.816;9.930;2023-10-13T08:51:01;8.70;;;3.03;;
78209;SDS011;67485;48.816;9.930;2023-10-13T08:53:36;6.87;;;3.10;;
78209;SDS011;67485;48.816;9.930;2023-10-13T08:56:16;7.40;;;3.13;;
78209;SDS011;67485;48.816;9.930;2023-10-13T08:58:59;8.07;;;3.60;;
78209;SDS011;67485;48.816;9.930;2023-10-13T09:01:31;8.95;;;2.63;;
78209;SDS011;67485;48.816;9.930;2023-10-13T09:04:17;7.65;;;3.08;;
78209;SDS011;67485;48.816;9.930;2023-10-13T09:06:44;9.37;;;2.90;;
78209;SDS011;67485;48.816;9.930;2023-10-13T09:09:32;8.40;;;3.30;;
78209;SDS011;67485;48.816;9.930;2023-10-13T09:14:52;9.50;;;3.50;;
78209;SDS011;67485;48.816;9.930;2023-10-13T09:17:23;9.80;;;3.25;;
78209;SDS011;67485;48.816;9.930;2023-10-13T09:20:02;7.60;;;2.23;;
78209;SDS011;67485;48.816;9.930;2023-10-13T09:22:48;6.63;;;2.10;;
78209;SDS011;67485;48.816;9.930;2023-10-13T09:25:41;6.25;;;2.33;;
78209;SDS011;67485;48.816;9.930;2023-10-13T09:28:34;5.93;;;2.40;;
78209;SDS011;67485;48.816;9.930;2023-10-13T09:31:02;7.07;;;2.30;;
78209;SDS011;67485;48.816;9.930;2023-10-13T09:33:33;7.10;;;2.27;;
78209;SDS011;67485;48.816;9.930;2023-10-13T09:36:04;4.25;;;2.03;;
78209;SDS011;67485;48.816;9.930;2023-10-13T09:38:32;7.63;;;2.78;;
78209;SDS011;67485;48.816;9.930;2023-10-13T09:41:00;7.68;;;2.20;;
78209;SDS011;67485;48.816;9.930;2023-10-13T09:43:43;10.07;;;2.72;;
78209;SDS011;67485;48.816;9.930;2023-10-13T09:46:10;7.47;;;2.03;;
78209;SDS011;67485;48.816;9.930;2023-10-13T09:48:46;10.05;;;2.63;;
78209;SDS011;67485;48.816;9.930;2023-10-13T09:51:13;6.32;;;2.95;;
78209;SDS011;67485;48.816;9.930;2023-10-13T09:56:32;5.90;;;2.53;;
78209;SDS011;67485;48.816;9.930;2023-10-13T09:59:18;7.33;;;2.90;;
78209;SDS011;67485;48.816;9.930;2023-10-13T10:01:49;8.18;;;2.58;;
78209;SDS011;67485;48.816;9.930;2023-10-13T10:04:22;7.00;;;3.15;;
78209;SDS011;67485;48.816;9.930;2023-10-13T10:09:29;8.93;;;2.95;;
78209;SDS011;67485;48.816;9.930;2023-10-13T10:14:35;8.20;;;2.50;;
78209;SDS011;67485;48.816;9.930;2023-10-13T10:17:08;10.00;;;3.38;;
78209;SDS011;67485;48.816;9.930;2023-10-13T10:19:55;8.00;;;2.50;;
78209;SDS011;67485;48.816;9.930;2023-10-13T10:25:05;6.63;;;2.47;;
78209;SDS011;67485;48.816;9.930;2023-10-13T10:27:56;16.05;;;2.88;;
78209;SDS011;67485;48.816;9.930;2023-10-13T10:32:55;5.80;;;2.72;;
78209;SDS011;67485;48.816;9.930;2023-10-13T10:35:25;6.60;;;2.55;;
78209;SDS011;67485;48.816;9.930;2023-10-13T10:38:14;5.77;;;2.83;;
78209;SDS011;67485;48.816;9.930;2023-10-13T10:40:49;5.15;;;2.30;;
78209;SDS011;67485;48.816;9.930;2023-10-13T10:43:23;8.23;;;2.90;;
78209;SDS011;67485;48.816;9.930;2023-10-13T10:45:51;5.93;;;2.80;;
78209;SDS011;67485;48.816;9.930;2023-10-13T10:48:17;10.20;;;2.90;;
78209;SDS011;67485;48.816;9.930;2023-10-13T10:50:52;6.25;;;2.40;;
78209;SDS011;67485;48.816;9.930;2023-10-13T10:53:21;11.25;;;3.08;;
78209;SDS011;67485;48.816;9.930;2023-10-13T10:56:09;9.63;;;2.88;;
78209;SDS011;67485;48.816;9.930;2023-10-13T10:58:45;7.18;;;3.08;;
78209;SDS011;67485;48.816;9.930;2023-10-13T11:01:12;5.43;;;3.30;;
78209;SDS011;67485;48.816;9.930;2023-10-13T11:03:56;14.55;;;3.35;;
78209;SDS011;67485;48.816;9.930;2023-10-13T11:06:27;9.65;;;3.00;;
78209;SDS011;67485;48.816;9.930;2023-10-13T11:09:03;7.22;;;3.00;;
78209;SDS011;67485;48.816;9.930;2023-10-13T11:11:49;5.35;;;3.40;;
78209;SDS011;67485;48.816;9.930;2023-10-13T11:14:25;10.03;;;2.83;;
78209;SDS011;67485;48.816;9.930;2023-10-13T11:16:52;10.40;;;3.30;;
78209;SDS011;67485;48.816;9.930;2023-10-13T11:19:39;7.45;;;2.92;;
78209;SDS011;67485;48.816;9.930;2023-10-13T11:22:15;6.65;;;2.90;;
78209;SDS011;67485;48.816;9.930;2023-10-13T11:25:01;8.48;;;3.20;;
78209;SDS011;67485;48.816;9.930;2023-10-13T11:27:36;6.20;;;3.63;;
78209;SDS011;67485;48.816;9.930;2023-10-13T11:30:21;7.05;;;3.05;;
78209;SDS011;67485;48.816;9.930;2023-10-13T11:35:22;9.32;;;2.88;;
78209;SDS011;67485;48.816;9.930;2023-10-13T11:37:50;7.47;;;3.67;;
78209;SDS011;67485;48.816;9.930;2023-10-13T11:40:29;11.00;;;3.30;;
78209;SDS011;67485;48.816;9.930;2023-10-13T11:43:32;7.60;;;3.42;;
78209;SDS011;67485;48.816;9.930;2023-10-13T11:46:22;8.25;;;2.97;;
78209;SDS011;67485;48.816;9.930;2023-10-13T11:49:10;6.70;;;2.65;;
78209;SDS011;67485;48.816;9.930;2023-10-13T11:51:39;6.65;;;2.95;;
78209;SDS011;67485;48.816;9.930;2023-10-13T11:54:10;6.53;;;3.27;;
78209;SDS011;67485;48.816;9.930;2023-10-13T11:56:41;9.65;;;3.10;;
78209;SDS011;67485;48.816;9.930;2023-10-13T11:59:10;9.57;;;2.88;;
78209;SDS011;67485;48.816;9.930;2023-10-13T12:01:48;8.00;;;2.47;;
78209;SDS011;67485;48.816;9.930;2023-10-13T12:04:34;8.07;;;2.90;;
78209;SDS011;67485;48.816;9.930;2023-10-13T12:07:10;7.30;;;3.17;;
78209;SDS011;67485;48.816;9.930;2023-10-13T12:09:49;6.60;;;3.45;;
78209;SDS011;67485;48.816;9.930;2023-10-13T12:14:54;5.20;;;2.95;;
78209;SDS011;67485;48.816;9.930;2023-10-13T12:17:24;5.22;;;3.08;;
78209;SDS011;67485;48.816;9.930;2023-10-13T12:19:59;7.33;;;3.23;;
78209;SDS011;67485;48.816;9.930;2023-10-13T12:22:25;8.90;;;3.00;;
78209;SDS011;67485;48.816;9.930;2023-10-13T12:24:54;10.00;;;3.13;;
78209;SDS011;67485;48.816;9.930;2023-10-13T12:27:20;7.95;;;3.28;;
78209;SDS011;67485;48.816;9.930;2023-10-13T12:30:00;11.20;;;3.60;;
78209;SDS011;67485;48.816;9.930;2023-10-13T12:32:33;7.77;;;2.90;;
78209;SDS011;67485;48.816;9.930;2023-10-13T12:35:00;11.60;;;3.10;;
78209;SDS011;67485;48.816;9.930;2023-10-13T12:37:30;8.43;;;3.03;;
78209;SDS011;67485;48.816;9.930;2023-10-13T12:40:03;9.02;;;3.40;;
78209;SDS011;67485;48.816;9.930;2023-10-13T12:42:47;9.48;;;3.10;;
78209;SDS011;67485;48.816;9.930;2023-10-13T12:45:31;10.97;;;2.97;;
78209;SDS011;67485;48.816;9.930;2023-10-13T12:48:15;7.65;;;2.70;;
78209;SDS011;67485;48.816;9.930;2023-10-13T12:51:00;9.20;;;3.00;;
78209;SDS011;67485;48.816;9.930;2023-10-13T12:53:49;7.38;;;2.60;;
78209;SDS011;67485;48.816;9.930;2023-10-13T12:56:15;7.80;;;3.05;;
78209;SDS011;67485;48.816;9.930;2023-10-13T12:58:42;9.17;;;3.20;;
78209;SDS011;67485;48.816;9.930;2023-10-13T13:01:18;7.78;;;2.90;;
78209;SDS011;67485;48.816;9.930;2023-10-13T13:03:48;9.95;;;2.60;;
78209;SDS011;67485;48.816;9.930;2023-10-13T13:06:22;8.85;;;2.97;;
78209;SDS011;67485;48.816;9.930;2023-10-13T13:08:57;6.22;;;2.90;;
78209;SDS011;67485;48.816;9.930;2023-10-13T13:11:24;8.10;;;2.70;;
78209;SDS011;67485;48.816;9.930;2023-10-13T13:13:50;10.98;;;2.80;;
78209;SDS011;67485;48.816;9.930;2023-10-13T13:16:16;6.57;;;2.40;;
78209;SDS011;67485;48.816;9.930;2023-10-13T13:18:47;5.50;;;2.60;;
78209;SDS011;67485;48.816;9.930;2023-10-13T13:21:12;6.60;;;2.60;;
78209;SDS011;67485;48.816;9.930;2023-10-13T13:23:45;11.25;;;2.80;;
78209;SDS011;67485;48.816;9.930;2023-10-13T13:26:11;9.50;;;2.50;;
78209;SDS011;67485;48.816;9.930;2023-10-13T13:28:46;6.82;;;2.58;;
78209;SDS011;67485;48.816;9.930;2023-10-13T13:31:17;7.35;;;2.55;;
78209;SDS011;67485;48.816;9.930;2023-10-13T13:33:43;9.60;;;2.00;;
78209;SDS011;67485;48.816;9.930;2023-10-13T13:36:09;7.85;;;2.58;;
78209;SDS011;67485;48.816;9.930;2023-10-13T13:38:44;8.30;;;2.47;;
78209;SDS011;67485;48.816;9.930;2023-10-13T13:41:17;9.07;;;2.40;;
78209;SDS011;67485;48.816;9.930;2023-10-13T13:43:43;7.95;;;3.20;;
78209;SDS011;67485;48.816;9.930;2023-10-13T13:46:19;11.37;;;2.93;;
78209;SDS011;67485;48.816;9.930;2023-10-13T13:48:50;7.30;;;2.83;;
78209;SDS011;67485;48.816;9.930;2023-10-13T13:51:17;9.23;;;2.50;;
78209;SDS011;67485;48.816;9.930;2023-10-13T13:53:51;9.25;;;3.03;;
78209;SDS011;67485;48.816;9.930;2023-10-13T13:56:18;7.20;;;2.30;;
78209;SDS011;67485;48.816;9.930;2023-10-13T13:58:44;7.33;;;2.33;;
78209;SDS011;67485;48.816;9.930;2023-10-13T14:01:11;8.05;;;2.55;;
78209;SDS011;67485;48.816;9.930;2023-10-13T14:03:44;10.35;;;2.78;;
78209;SDS011;67485;48.816;9.930;2023-10-13T14:06:14;11.55;;;2.50;;
78209;SDS011;67485;48.816;9.930;2023-10-13T14:08:52;7.82;;;2.63;;
78209;SDS011;67485;48.816;9.930;2023-10-13T14:11:23;5.90;;;2.60;;
78209;SDS011;67485;48.816;9.930;2023-10-13T14:16:53;7.78;;;2.42;;
78209;SDS011;67485;48.816;9.930;2023-10-13T14:19:19;7.53;;;2.55;;
78209;SDS011;67485;48.816;9.930;2023-10-13T14:21:54;7.93;;;2.92;;
78209;SDS011;67485;48.816;9.930;2023-10-13T14:24:21;9.43;;;2.57;;
78209;SDS011;67485;48.816;9.930;2023-10-13T14:27:02;7.93;;;2.50;;
78209;SDS011;67485;48.816;9.930;2023-10-13T14:29:40;6.03;;;2.67;;
78209;SDS011;67485;48.816;9.930;2023-10-13T14:32:10;10.50;;;2.65;;
78209;SDS011;67485;48.816;9.930;2023-10-13T14:34:41;5.55;;;2.55;;
78209;SDS011;67485;48.816;9.930;2023-10-13T14:37:07;6.70;;;2.80;;
78209;SDS011;67485;48.816;9.930;2023-10-13T14:39:38;8.18;;;2.55;;
78209;SDS011;67485;48.816;9.930;2023-10-13T14:42:04;11.07;;;2.75;;
78209;SDS011;67485;48.816;9.930;2023-10-13T14:44:33;7.75;;;2.80;;
78209;SDS011;67485;48.816;9.930;2023-10-13T14:47:00;10.00;;;2.83;;
78209;SDS011;67485;48.816;9.930;2023-10-13T14:49:26;5.87;;;2.60;;
78209;SDS011;67485;48.816;9.930;2023-10-13T14:51:52;7.18;;;2.65;;
78209;SDS011;67485;48.816;9.930;2023-10-13T14:54:20;6.70;;;2.80;;
78209;SDS011;67485;48.816;9.930;2023-10-13T14:57:02;7.60;;;2.30;;
78209;SDS011;67485;48.816;9.930;2023-10-13T14:59:28;15.10;;;2.58;;
78209;SDS011;67485;48.816;9.930;2023-10-13T15:02:01;6.20;;;2.50;;
78209;SDS011;67485;48.816;9.930;2023-10-13T15:04:29;7.53;;;2.30;;
78209;SDS011;67485;48.816;9.930;2023-10-13T15:06:58;10.35;;;2.47;;
78209;SDS011;67485;48.816;9.930;2023-10-13T15:09:27;8.43;;;3.10;;
78209;SDS011;67485;48.816;9.930;2023-10-13T15:11:53;9.48;;;2.63;;
78209;SDS011;67485;48.816;9.930;2023-10-13T15:14:19;6.03;;;2.70;;
78209;SDS011;67485;48.816;9.930;2023-10-13T15:16:45;5.68;;;2.60;;
78209;SDS011;67485;48.816;9.930;2023-10-13T15:19:11;5.72;;;2.53;;
78209;SDS011;67485;48.816;9.930;2023-10-13T15:21:37;8.17;;;2.23;;
78209;SDS011;67485;48.816;9.930;2023-10-13T15:24:06;8.43;;;2.78;;
78209;SDS011;67485;48.816;9.930;2023-10-13T15:26:47;6.93;;;2.50;;
78209;SDS011;67485;48.816;9.930;2023-10-13T15:29:14;11.55;;;2.40;;
78209;SDS011;67485;48.816;9.930;2023-10-13T15:31:45;8.02;;;2.60;;
78209;SDS011;67485;48.816;9.930;2023-10-13T15:34:26;10.73;;;2.83;;
78209;SDS011;67485;48.816;9.930;2023-10-13T15:36:53;7.38;;;2.65;;
78209;SDS011;67485;48.816;9.930;2023-10-13T15:39:20;6.78;;;2.60;;
78209;SDS011;67485;48.816;9.930;2023-10-13T15:41:50;9.82;;;2.65;;
78209;SDS011;67485;48.816;9.930;2023-10-13T15:44:22;7.88;;;2.90;;
78209;SDS011;67485;48.816;9.930;2023-10-13T15:46:56;7.23;;;2.70;;
78209;SDS011;67485;48.816;9.930;2023-10-13T15:49:23;5.43;;;2.70;;
78209;SDS011;67485;48.816;9.930;2023-10-13T15:51:49;9.05;;;2.45;;
78209;SDS011;67485;48.816;9.930;2023-10-13T15:54:18;5.10;;;2.70;;
78209;SDS011;67485;48.816;9.930;2023-10-13T15:56:44;9.87;;;2.30;;
78209;SDS011;67485;48.816;9.930;2023-10-13T15:59:10;11.38;;;2.92;;
78209;SDS011;67485;48.816;9.930;2023-10-13T16:01:36;9.85;;;3.38;;
78209;SDS011;67485;48.816;9.930;2023-10-13T16:04:05;7.05;;;2.58;;
78209;SDS011;67485;48.816;9.930;2023-10-13T16:06:39;6.60;;;2.53;;
78209;SDS011;67485;48.816;9.930;2023-10-13T16:09:14;10.77;;;2.67;;
78209;SDS011;67485;48.816;9.930;2023-10-13T16:11:41;11.25;;;2.63;;
78209;SDS011;67485;48.816;9.930;2023-10-13T16:14:11;11.63;;;2.50;;
78209;SDS011;67485;48.816;9.930;2023-10-13T16:16:41;8.30;;;2.30;;
78209;SDS011;67485;48.816;9.930;2023-10-13T16:19:15;10.25;;;2.20;;
78209;SDS011;67485;48.816;9.930;2023-10-13T16:21:51;7.23;;;2.77;;
78209;SDS011;67485;48.816;9.930;2023-10-13T16:24:19;10.70;;;2.55;;
78209;SDS011;67485;48.816;9.930;2023-10-13T16:26:49;8.50;;;2.38;;
78209;SDS011;67485;48.816;9.930;2023-10-13T16:29:18;6.93;;;2.40;;
78209;SDS011;67485;48.816;9.930;2023-10-13T16:31:47;8.80;;;2.58;;
78209;SDS011;67485;48.816;9.930;2023-10-13T16:34:14;9.37;;;2.47;;
78209;SDS011;67485;48.816;9.930;2023-10-13T16:36:42;9.02;;;2.65;;
78209;SDS011;67485;48.816;9.930;2023-10-13T16:39:11;9.65;;;2.88;;
78209;SDS011;67485;48.816;9.930;2023-10-13T16:41:40;14.82;;;2.75;;
78209;SDS011;67485;48.816;9.930;2023-10-13T16:44:06;12.55;;;3.10;;
78209;SDS011;67485;48.816;9.930;2023-10-13T16:46:35;11.10;;;2.30;;
78209;SDS011;67485;48.816;9.930;2023-10-13T16:49:02;7.05;;;2.63;;
78209;SDS011;67485;48.816;9.930;2023-10-13T16:51:27;11.90;;;2.75;;
78209;SDS011;67485;48.816;9.930;2023-10-13T16:53:54;10.45;;;2.63;;
78209;SDS011;67485;48.816;9.930;2023-10-13T16:56:20;9.87;;;2.57;;
78209;SDS011;67485;48.816;9.930;2023-10-13T16:58:47;12.13;;;2.38;;
78209;SDS011;67485;48.816;9.930;2023-10-13T17:01:13;8.10;;;2.45;;
78209;SDS011;67485;48.816;9.930;2023-10-13T17:03:40;5.70;;;2.05;;
78209;SDS011;67485;48.816;9.930;2023-10-13T17:06:10;5.87;;;1.93;;
78209;SDS011;67485;48.816;9.930;2023-10-13T17:08:37;9.02;;;2.40;;
78209;SDS011;67485;48.816;9.930;2023-10-13T17:11:07;11.32;;;2.83;;
78209;SDS011;67485;48.816;9.930;2023-10-13T17:13:39;7.20;;;2.35;;
78209;SDS011;67485;48.816;9.930;2023-10-13T17:16:13;9.50;;;2.55;;
78209;SDS011;67485;48.816;9.930;2023-10-13T17:18:41;8.53;;;2.60;;
78209;SDS011;67485;48.816;9.930;2023-10-13T17:21:40;9.90;;;2.53;;
78209;SDS011;67485;48.816;9.930;2023-10-13T17:23:58;8.57;;;2.55;;
78209;SDS011;67485;48.816;9.930;2023-10-13T17:26:27;8.23;;;2.97;;
78209;SDS011;67485;48.816;9.930;2023-10-13T17:28:53;7.68;;;2.30;;
78209;SDS011;67485;48.816;9.930;2023-10-13T17:31:20;6.22;;;2.33;;
78209;SDS011;67485;48.816;9.930;2023-10-13T17:33:47;12.80;;;2.80;;
78209;SDS011;67485;48.816;9.930;2023-10-13T17:36:14;7.90;;;2.80;;
78209;SDS011;67485;48.816;9.930;2023-10-13T17:38:40;7.03;;;2.67;;
78209;SDS011;67485;48.816;9.930;2023-10-13T17:41:10;9.25;;;2.10;;
78209;SDS011;67485;48.816;9.930;2023-10-13T17:43:36;6.38;;;2.33;;
78209;SDS011;67485;48.816;9.930;2023-10-13T17:46:06;5.47;;;2.17;;
78209;SDS011;67485;48.816;9.930;2023-10-13T17:48:32;7.90;;;2.45;;
78209;SDS011;67485;48.816;9.930;2023-10-13T17:50:59;5.90;;;2.45;;
78209;SDS011;67485;48.816;9.930;2023-10-13T17:53:29;10.57;;;2.47;;
78209;SDS011;67485;48.816;9.930;2023-10-13T17:56:09;9.03;;;2.63;;
78209;SDS011;67485;48.816;9.930;2023-10-13T17:58:37;9.13;;;2.38;;
78209;SDS011;67485;48.816;9.930;2023-10-13T18:01:11;12.18;;;3.10;;
78209;SDS011;67485;48.816;9.930;2023-10-13T18:03:51;7.88;;;2.97;;
78209;SDS011;67485;48.816;9.930;2023-10-13T18:06:19;7.00;;;2.60;;
78209;SDS011;67485;48.816;9.930;2023-10-13T18:08:46;5.03;;;2.70;;
78209;SDS011;67485;48.816;9.930;2023-10-13T18:11:12;8.25;;;2.88;;